Bowerman Airport
KHQM : now visible

Airfield :











YOU CAN JOIN US ON...

 
LOGIN :

Register | Disclaimer

   EN    FR    IT 

 









Legend :    VFR   Marginal VFR   IFR   Intensive IFR   Very Intensive IFR
Visi :
Ceiling :
>= 8 km
>= 3000ft
5 to 8 km
1000 to 3000 ft
1500m to 5 km
500 to 1000 ft
800 to 1500m
200 to 500 ft
< 800m
< 200 ft
Symbols :   Thunderstorms  Fog  Heavy snow  Heavy precipitations  Wind > 20 kt






- Airport Elevation : 18 ft


KHQM - Bowerman

CURRENT METAR :
  • 171453Z AUTO 09004KT 10SM SCT036 BKN075 OVC095 00/00 A3005 RMK AO2 SLP181 T00000000 51018

EXPIRED METARs :
  • 171353Z AUTO 09004KT 10SM OVC100 00/00 A3003 RMK AO2 SLP174 T00000000
  • 171253Z AUTO 08005KT 10SM OVC120 M01/M01 A3002 RMK AO2 SLP170 T10061006

TAF KHQM
Valid from the 17 at 12:00 until the 18 at 12:00 UTC


171120Z 1712/1812 08006KT P6SM SCT015 BKN025 BKN040
FM171500 08006KT P6SM SCT050 BKN120 BKN200
FM172200 08010KT P6SM SCT025 BKN040 OVC090
FM180200 08010KT P6SM -RA OVC020
FM180500 11020G30KT 4SM -RA BR OVC020



MET'MAP, your aeronautical weather chart ! - Copyright ORBIFLY December 2007 - Disclaimer

ORBIFLY MET'MAP TEAM :

Programming & Development : Alexandra Zaïnal
Concept & original design : Baudouin d'Aumeries
Assistance for programming : Marc-Olivier Méhu
Technical & hardware support : Manuel Goepfert

Contact : metmap@orbifly.com




SOURCES & CREDITS :

   NOAA       Earth
Advisory